createdAt,value
2023-01-08T00:02:33.853Z,15.00
2023-01-08T00:05:12.404Z,14.27
2023-01-08T00:07:51.381Z,14.85
2023-01-08T00:10:23.665Z,12.73
2023-01-08T00:12:56.911Z,12.13
2023-01-08T00:15:30.995Z,13.93
2023-01-08T00:21:04.846Z,13.52
2023-01-08T00:23:51.664Z,10.75
2023-01-08T00:26:21.597Z,12.15
2023-01-08T00:29:17.289Z,9.25
2023-01-08T00:32:07.135Z,13.63
2023-01-08T00:34:40.489Z,12.20
2023-01-08T00:40:32.578Z,14.43
2023-01-08T00:43:11.421Z,10.73
2023-01-08T00:46:09.096Z,9.27
2023-01-08T00:51:48.073Z,13.10
2023-01-08T00:54:35.246Z,8.88
2023-01-08T00:57:30.255Z,13.73
2023-01-08T01:00:24.407Z,9.07
2023-01-08T01:03:19.523Z,11.32
2023-01-08T01:06:29.886Z,14.57
2023-01-08T01:09:27.006Z,9.88
2023-01-08T01:12:19.515Z,13.45
2023-01-08T01:14:55.927Z,18.67
2023-01-08T01:17:41.544Z,17.40
2023-01-08T01:20:34.365Z,15.07
2023-01-08T01:23:13.334Z,11.00
2023-01-08T01:26:05.528Z,12.23
2023-01-08T01:28:53.916Z,10.82
2023-01-08T01:31:46.141Z,12.75
2023-01-08T01:34:29.078Z,16.63
2023-01-08T01:37:19.747Z,21.10
2023-01-08T01:46:14.368Z,11.57
2023-01-08T01:48:55.869Z,21.02
2023-01-08T01:52:11.056Z,14.40
2023-01-08T01:54:53.687Z,16.60
2023-01-08T01:57:44.356Z,14.52
2023-01-08T02:03:36.369Z,13.73
2023-01-08T02:06:54.499Z,15.68
2023-01-08T02:10:14.022Z,18.25
2023-01-08T02:13:39.652Z,20.65
2023-01-08T02:16:39.785Z,18.20
2023-01-08T02:22:49.986Z,11.43
2023-01-08T02:25:44.193Z,12.75
2023-01-08T02:28:17.571Z,17.40
2023-01-08T02:30:59.118Z,14.82
2023-01-08T02:33:43.672Z,15.93
2023-01-08T02:36:42.127Z,11.65
2023-01-08T02:39:36.207Z,12.73
2023-01-08T02:45:26.651Z,12.15
2023-01-08T02:48:26.960Z,14.52
2023-01-08T02:51:30.441Z,13.93
2023-01-08T02:54:21.976Z,12.95
2023-01-08T02:57:00.097Z,12.07
2023-01-08T02:59:51.742Z,10.13
2023-01-08T03:02:33.598Z,10.80
2023-01-08T03:05:09.102Z,15.32
2023-01-08T03:14:00.540Z,8.80
2023-01-08T03:16:42.597Z,11.23
2023-01-08T03:19:30.899Z,10.00
2023-01-08T03:22:16.098Z,8.35
2023-01-08T03:25:00.486Z,12.80
2023-01-08T03:27:50.762Z,11.50
2023-01-08T03:30:33.627Z,8.13
2023-01-08T03:33:03.254Z,8.32
2023-01-08T03:35:55.408Z,14.85
2023-01-08T03:38:42.567Z,12.40
2023-01-08T03:41:11.570Z,10.80
2023-01-08T03:43:49.239Z,13.32
2023-01-08T03:46:38.514Z,11.10
2023-01-08T03:49:35.997Z,14.20
2023-01-08T03:52:06.533Z,7.75
2023-01-08T03:57:32.963Z,10.63
2023-01-08T04:00:23.648Z,10.63
2023-01-08T04:02:57.705Z,10.40
2023-01-08T04:05:41.924Z,8.70
2023-01-08T04:08:32.283Z,12.70
2023-01-08T04:11:11.717Z,10.45
2023-01-08T04:14:12.691Z,7.57
2023-01-08T04:17:12.593Z,12.23
2023-01-08T04:20:08.732Z,7.63
2023-01-08T04:25:40.960Z,13.38
2023-01-08T04:28:25.752Z,6.80
2023-01-08T04:31:30.406Z,10.63
2023-01-08T04:34:36.867Z,9.32
2023-01-08T04:37:18.350Z,11.73
2023-01-08T04:39:51.133Z,12.75
2023-01-08T04:42:29.551Z,9.00
2023-01-08T04:45:13.037Z,15.33
2023-01-08T04:47:54.534Z,8.05
2023-01-08T04:50:38.786Z,9.40
2023-01-08T04:56:11.068Z,7.63
2023-01-08T05:01:37.119Z,6.07
2023-01-08T05:04:53.189Z,5.80
2023-01-08T05:07:32.847Z,4.78
2023-01-08T05:10:38.196Z,4.47
2023-01-08T05:13:30.517Z,5.95
2023-01-08T05:16:23.810Z,3.80
2023-01-08T05:19:06.283Z,3.25
2023-01-08T05:21:50.452Z,2.72
2023-01-08T05:24:43.354Z,4.13
2023-01-08T05:27:31.737Z,2.95
2023-01-08T05:30:09.091Z,5.50
2023-01-08T05:32:40.515Z,4.67
2023-01-08T05:35:28.743Z,3.92
2023-01-08T05:38:34.231Z,7.00
2023-01-08T05:41:05.223Z,4.85
2023-01-08T05:43:50.473Z,11.25
2023-01-08T05:46:32.250Z,4.47
2023-01-08T05:52:04.126Z,1.88
2023-01-08T05:57:54.421Z,4.45
2023-01-08T06:00:37.637Z,3.92
2023-01-08T06:03:26.965Z,4.78
2023-01-08T06:06:06.911Z,6.80
2023-01-08T06:08:59.468Z,5.78
2023-01-08T06:14:28.108Z,3.13
2023-01-08T06:22:58.148Z,5.15
2023-01-08T06:25:56.476Z,4.47
2023-01-08T06:28:36.970Z,6.82
2023-01-08T06:40:26.392Z,6.10
2023-01-08T06:46:34.323Z,6.00
2023-01-08T06:49:24.952Z,6.25
2023-01-08T06:55:06.975Z,5.55
2023-01-08T06:57:43.778Z,6.60
2023-01-08T07:00:22.717Z,4.97
2023-01-08T07:03:07.764Z,6.85
2023-01-08T07:08:44.160Z,9.25
2023-01-08T07:11:30.481Z,8.35
2023-01-08T07:14:33.843Z,6.50
2023-01-08T07:17:24.501Z,4.80
2023-01-08T07:21:01.672Z,6.40
2023-01-08T07:23:11.867Z,9.23
2023-01-08T07:25:59.255Z,9.63
2023-01-08T07:28:37.603Z,7.50
2023-01-08T07:31:39.613Z,7.68
2023-01-08T07:34:38.888Z,6.90
2023-01-08T07:37:22.904Z,7.68
2023-01-08T07:47:33.847Z,4.53
2023-01-08T07:55:29.498Z,4.63
2023-01-08T08:01:13.054Z,3.63
2023-01-08T08:04:00.898Z,4.45
2023-01-08T08:06:42.308Z,5.03
2023-01-08T08:09:14.820Z,8.55
2023-01-08T08:14:54.251Z,7.25
2023-01-08T08:24:48.414Z,6.93
2023-01-08T08:27:12.122Z,6.15
2023-01-08T08:30:13.795Z,6.07
2023-01-08T08:36:22.605Z,8.10
2023-01-08T08:41:42.952Z,13.25
2023-01-08T08:50:39.077Z,6.50
2023-01-08T08:53:17.728Z,9.00
2023-01-08T08:56:09.102Z,9.70
2023-01-08T09:02:10.089Z,8.00
2023-01-08T09:22:30.039Z,7.88
2023-01-08T09:29:38.695Z,5.47
2023-01-08T09:33:13.128Z,13.38
2023-01-08T09:40:17.972Z,6.45
2023-01-08T09:43:37.408Z,8.93
2023-01-08T09:50:59.275Z,10.75
2023-01-08T11:03:52.145Z,10.63
2023-01-08T11:37:43.134Z,10.77
2023-01-08T11:55:12.157Z,9.70
2023-01-08T11:58:31.380Z,11.75
2023-01-08T12:04:58.071Z,16.23
2023-01-08T12:08:11.105Z,11.40
2023-01-08T13:07:05.055Z,9.02
2023-01-08T13:09:39.673Z,10.35
2023-01-08T13:12:19.264Z,7.47
2023-01-08T13:15:26.425Z,10.10
2023-01-08T13:18:20.725Z,15.32
2023-01-08T13:25:14.656Z,10.93
2023-01-08T13:27:54.847Z,9.52
2023-01-08T13:30:49.189Z,9.38
2023-01-08T13:33:41.383Z,10.05
2023-01-08T13:36:37.087Z,7.78
2023-01-08T13:39:38.392Z,23.00
2023-01-08T13:45:31.351Z,12.88
2023-01-08T13:48:19.739Z,11.55
2023-01-08T14:02:02.298Z,5.93
2023-01-08T14:09:09.542Z,7.47
2023-01-08T14:11:47.396Z,8.43
2023-01-08T14:14:37.728Z,8.23
2023-01-08T14:22:53.021Z,9.20
2023-01-08T14:28:58.371Z,5.43
2023-01-08T14:31:31.488Z,5.75
2023-01-08T14:34:07.330Z,9.02
2023-01-08T14:36:40.881Z,8.02
2023-01-08T14:41:26.944Z,6.00
2023-01-08T14:43:39.531Z,4.32
2023-01-08T14:47:04.143Z,7.80
2023-01-08T15:03:42.734Z,4.15
2023-01-08T15:06:36.602Z,4.90
2023-01-08T15:09:26.110Z,3.55
2023-01-08T15:12:07.768Z,3.40
2023-01-08T15:14:49.136Z,5.72
2023-01-08T15:18:24.166Z,8.07
2023-01-08T15:21:11.037Z,4.18
2023-01-08T15:27:13.969Z,5.28
2023-01-08T15:30:24.634Z,3.65
2023-01-08T15:33:18.307Z,6.18
2023-01-08T15:35:47.986Z,3.45
2023-01-08T15:38:31.275Z,3.17
2023-01-08T15:41:14.803Z,3.92
2023-01-08T15:43:51.578Z,3.30
2023-01-08T15:46:24.739Z,4.38
2023-01-08T15:50:07.926Z,2.70
2023-01-08T15:56:32.806Z,3.10
2023-01-08T15:59:38.304Z,3.38
2023-01-08T16:02:06.531Z,4.60
2023-01-08T16:05:08.768Z,3.85
2023-01-08T16:07:40.405Z,3.85
2023-01-08T16:10:29.547Z,6.10
2023-01-08T16:16:53.490Z,3.40
2023-01-08T16:19:41.748Z,2.63
2023-01-08T16:22:23.453Z,4.15
2023-01-08T16:24:57.833Z,5.80
2023-01-08T16:28:21.776Z,5.00
2023-01-08T16:36:55.794Z,4.03
2023-01-08T16:58:30.859Z,3.90
2023-01-08T17:01:23.145Z,6.00
2023-01-08T17:03:54.994Z,4.80
2023-01-08T17:06:31.755Z,4.80
2023-01-08T17:09:13.055Z,7.07
2023-01-08T17:14:40.654Z,5.60
2023-01-08T17:21:06.566Z,6.55
2023-01-08T17:28:40.251Z,4.18
2023-01-08T17:31:28.013Z,2.78
2023-01-08T17:37:45.258Z,5.80
2023-01-08T17:40:50.922Z,4.28
2023-01-08T17:46:51.956Z,4.57
2023-01-08T17:52:40.633Z,2.58
2023-01-08T17:56:11.523Z,4.27
2023-01-08T17:58:44.745Z,6.60
2023-01-08T18:01:14.090Z,5.63
2023-01-08T18:03:50.245Z,4.05
2023-01-08T18:06:22.896Z,5.83
2023-01-08T18:09:02.498Z,3.90
2023-01-08T18:18:03.373Z,6.23
2023-01-08T18:21:14.663Z,4.10
2023-01-08T18:27:11.623Z,4.63
2023-01-08T18:29:39.115Z,3.20
2023-01-08T18:32:25.478Z,4.87
2023-01-08T18:35:08.462Z,5.32
2023-01-08T18:38:05.596Z,3.83
2023-01-08T18:41:53.725Z,10.17
2023-01-08T19:01:26.943Z,4.07
2023-01-08T19:05:41.229Z,5.80
2023-01-08T19:07:29.424Z,3.67
2023-01-08T19:10:01.575Z,5.33
2023-01-08T19:13:22.653Z,4.13
2023-01-08T19:16:44.310Z,4.90
2023-01-08T19:22:37.241Z,8.97
2023-01-08T19:25:20.484Z,5.63
2023-01-08T19:27:54.120Z,2.58
2023-01-08T19:31:01.839Z,5.90
2023-01-08T19:33:50.205Z,5.37
2023-01-08T19:36:50.274Z,5.20
2023-01-08T19:40:00.334Z,6.20
2023-01-08T19:50:53.407Z,3.47
2023-01-08T19:52:59.973Z,5.03
2023-01-08T19:56:06.303Z,5.43
2023-01-08T19:58:40.293Z,7.53
2023-01-08T20:01:26.622Z,8.50
2023-01-08T20:04:18.335Z,5.63
2023-01-08T20:10:24.044Z,4.10
2023-01-08T20:19:42.073Z,7.10
2023-01-08T20:26:29.035Z,10.73
2023-01-08T20:29:23.837Z,5.70
2023-01-08T20:38:21.771Z,6.57
2023-01-08T20:41:14.227Z,8.67
2023-01-08T20:51:17.445Z,6.57
2023-01-08T20:56:33.570Z,5.23
2023-01-08T21:03:00.718Z,9.43
2023-01-08T21:06:00.204Z,7.47
2023-01-08T21:08:34.781Z,8.43
2023-01-08T21:11:22.281Z,7.37
2023-01-08T21:14:08.939Z,9.67
2023-01-08T21:16:41.671Z,6.83
2023-01-08T21:19:32.137Z,7.38
2023-01-08T21:22:05.657Z,12.88
2023-01-08T21:24:37.530Z,12.47
2023-01-08T21:30:21.505Z,8.43
2023-01-08T21:36:28.831Z,7.63
2023-01-08T21:48:38.880Z,12.63
2023-01-08T21:58:11.939Z,8.53
2023-01-08T22:03:41.736Z,7.43
2023-01-08T22:06:39.955Z,5.93
2023-01-08T22:16:46.207Z,9.13
2023-01-08T22:22:49.133Z,7.30
2023-01-08T22:25:32.765Z,4.93
2023-01-08T22:28:36.307Z,7.70
2023-01-08T22:31:26.604Z,6.40
2023-01-08T22:34:05.780Z,6.20
2023-01-08T22:37:04.736Z,6.80
2023-01-08T22:39:41.300Z,5.97
2023-01-08T22:45:04.178Z,7.20
2023-01-08T22:48:02.607Z,9.07
2023-01-08T22:58:40.655Z,9.80
2023-01-08T23:10:22.723Z,5.37
2023-01-08T23:17:09.471Z,10.73
2023-01-08T23:39:27.975Z,6.47
